Time;durP1;ratioP1;P1;durP2;ratioP2;P2;SDS_P1;SDS_P2;PMS_P1;PMS_P2;Temp;Humidity;BMP_temperature;BMP_pressure;BME280_temperature;BME280_humidity;BME280_pressure;Samples;Min_cycle;Max_cycle;Signal;HPM_P1;HPM_P2
2022/10/14 00:01:53;;;;;;;;;;;;;;;11.82;72.73;101994.73;1698986;82;25796;-60
2022/10/14 00:04:19;;;;;;;;;;;;;;;11.80;72.50;101991.28;1702910;83;27364;-60
2022/10/14 00:06:45;;;;;;;;;;;;;;;11.79;72.58;101986.86;1694457;83;27520;-61
2022/10/14 00:09:14;;;;;;;;;;;;;;;11.79;72.64;101993.60;1703618;83;25788;-60
2022/10/14 00:11:40;;;;;;;;;;;;;;;11.78;72.84;101987.87;1688624;84;25711;-60
2022/10/14 00:14:11;;;;;;;;;;;;;;;11.76;72.83;101983.06;1703408;83;25768;-61
2022/10/14 00:16:40;;;;;;;;;;;;;;;11.77;73.04;101981.22;1711456;82;26513;-62
2022/10/14 00:19:08;;;;;;;;;;;;;;;11.78;73.02;101981.12;1728261;83;28360;-61
2022/10/14 00:21:38;;;;;;;;;;;;;;;11.77;73.08;101975.36;1674595;82;25724;-61
2022/10/14 00:24:06;;;;;;;;;;;;;;;11.74;72.84;101979.62;1694240;83;25772;-61
2022/10/14 00:26:35;;;;;;;;;;;;;;;11.71;72.85;101972.63;1690347;83;26519;-61
2022/10/14 00:29:03;;;;;;;;;;;;;;;11.67;72.65;101970.27;1714481;83;26450;-61
2022/10/14 00:31:31;;;;;;;;;;;;;;;11.64;72.73;101967.80;1725790;83;27665;-60
2022/10/14 00:33:57;;;;;;;;;;;;;;;11.60;72.98;101967.16;1706820;82;25758;-61
2022/10/14 00:36:24;;;;;;;;;;;;;;;11.62;73.07;101967.92;1710430;83;25760;-61
2022/10/14 00:38:52;;;;;;;;;;;;;;;11.64;73.16;101962.41;1725947;83;25854;-61
2022/10/14 00:41:28;;;;;;;;;;;;;;;11.65;73.21;101956.92;1702272;83;25764;-60
2022/10/14 00:44:01;;;;;;;;;;;;;;;11.68;72.98;101959.36;1715838;83;27544;-60
2022/10/14 00:46:34;;;;;;;;;;;;;;;11.73;73.17;101950.47;1673481;83;25491;-61
2022/10/14 00:49:06;;;;;;;;;;;;;;;11.76;73.16;101949.37;1671838;83;25795;-60
2022/10/14 00:51:33;;;;;;;;;;;;;;;11.79;73.09;101940.19;1716052;83;25894;-60
2022/10/14 00:54:00;;;;;;;;;;;;;;;11.80;72.90;101941.41;1721879;83;25590;-60
2022/10/14 00:56:29;;;;;;;;;;;;;;;11.81;72.72;101943.13;1697259;83;27494;-61
2022/10/14 00:58:57;;;;;;;;;;;;;;;11.79;72.65;101932.94;1675915;83;25788;-60
2022/10/14 01:01:24;;;;;;;;;;;;;;;11.79;72.64;101935.64;1714950;83;26356;-61
2022/10/14 01:03:50;;;;;;;;;;;;;;;11.75;72.68;101937.70;1690060;83;26130;-60
2022/10/14 01:06:30;;;;;;;;;;;;;;;11.74;72.68;101940.03;1724961;83;25745;-62
2022/10/14 01:09:20;;;;;;;;;;;;;;;11.71;72.52;101931.31;1670251;83;27606;-60
2022/10/14 01:12:07;;;;;;;;;;;;;;;11.69;72.55;101928.74;1668195;85;25791;-60
2022/10/14 01:14:58;;;;;;;;;;;;;;;11.73;72.89;101926.20;1699671;83;26368;-60
2022/10/14 01:17:27;;;;;;;;;;;;;;;11.78;72.96;101933.06;1705030;83;25824;-61
2022/10/14 01:20:06;;;;;;;;;;;;;;;11.81;72.98;101922.91;1720058;83;25721;-61
2022/10/14 01:23:06;;;;;;;;;;;;;;;11.83;72.90;101925.52;1718308;83;27476;-61
2022/10/14 01:25:36;;;;;;;;;;;;;;;11.83;72.87;101927.70;1693178;83;25723;-61
2022/10/14 01:28:12;;;;;;;;;;;;;;;11.81;72.78;101932.34;1719875;82;25714;-62
2022/10/14 01:30:45;;;;;;;;;;;;;;;11.80;72.85;101929.27;1720763;83;26157;-61
2022/10/14 01:33:17;;;;;;;;;;;;;;;11.79;72.83;101924.85;1720403;83;25756;-60
2022/10/14 01:35:56;;;;;;;;;;;;;;;11.76;72.74;101925.11;1703734;83;29574;-61
2022/10/14 01:38:26;;;;;;;;;;;;;;;11.77;72.93;101924.61;1661281;83;25733;-61
2022/10/14 01:41:01;;;;;;;;;;;;;;;11.80;73.13;101927.92;1683861;84;25643;-62
2022/10/14 01:43:30;;;;;;;;;;;;;;;11.82;73.09;101927.33;1683826;83;25889;-59
2022/10/14 01:45:59;;;;;;;;;;;;;;;11.85;73.02;101924.88;1692114;83;25759;-60
2022/10/14 01:48:29;;;;;;;;;;;;;;;11.86;72.83;101923.44;1700301;83;27484;-61
2022/10/14 01:50:58;;;;;;;;;;;;;;;11.87;72.64;101921.59;1701185;83;25470;-62
2022/10/14 01:53:31;;;;;;;;;;;;;;;11.87;72.32;101922.94;1712804;83;25682;-61
2022/10/14 01:55:59;;;;;;;;;;;;;;;11.82;72.17;101913.00;1720523;83;25779;-61
2022/10/14 01:58:30;;;;;;;;;;;;;;;11.72;72.08;101915.05;1720728;83;25674;-61
2022/10/14 02:00:57;;;;;;;;;;;;;;;11.68;72.04;101915.39;1648842;83;27577;-61
2022/10/14 02:03:24;;;;;;;;;;;;;;;11.65;72.31;101912.92;1679913;83;25802;-61
2022/10/14 02:05:57;;;;;;;;;;;;;;;11.63;72.42;101911.70;1666509;83;25877;-62
2022/10/14 02:08:48;;;;;;;;;;;;;;;11.63;72.45;101916.20;1652949;83;25831;-61
2022/10/14 02:11:17;;;;;;;;;;;;;;;11.63;72.68;101920.25;1681894;83;25714;-60
2022/10/14 02:14:10;;;;;;;;;;;;;;;11.58;72.65;101917.90;1718087;83;27542;-61
2022/10/14 02:16:55;;;;;;;;;;;;;;;11.52;72.77;101912.47;1696210;84;25905;-61
2022/10/14 02:19:41;;;;;;;;;;;;;;;11.49;72.94;101919.93;1704809;83;25789;-61
2022/10/14 02:22:28;;;;;;;;;;;;;;;11.46;72.87;101912.94;1725370;83;26207;-60
2022/10/14 02:24:59;;;;;;;;;;;;;;;11.48;73.15;101912.81;1711641;83;25732;-61
2022/10/14 02:27:27;;;;;;;;;;;;;;;11.50;72.82;101913.57;1697921;84;27503;-61
2022/10/14 02:29:55;;;;;;;;;;;;;;;11.46;73.01;101919.67;1670594;83;25759;-61
2022/10/14 02:32:24;;;;;;;;;;;;;;;11.43;73.11;101919.89;1669994;85;25785;-62
2022/10/14 02:34:53;;;;;;;;;;;;;;;11.43;73.14;101918.08;1708507;83;26550;-61
2022/10/14 02:37:21;;;;;;;;;;;;;;;11.43;73.14;101919.89;1701610;83;25819;-61
2022/10/14 02:40:00;;;;;;;;;;;;;;;11.48;73.23;101919.55;1728281;82;28564;-61
2022/10/14 02:42:27;;;;;;;;;;;;;;;11.51;73.24;101919.34;1721397;82;26026;-62
2022/10/14 02:44:57;;;;;;;;;;;;;;;11.52;73.21;101916.52;1727339;82;25772;-61
2022/10/14 02:47:24;;;;;;;;;;;;;;;11.52;73.28;101919.72;1742688;82;25852;-62
2022/10/14 02:49:52;;;;;;;;;;;;;;;11.50;73.02;101915.80;1706087;81;26311;-61
2022/10/14 02:52:19;;;;;;;;;;;;;;;11.49;72.97;101913.20;1712224;82;27527;-61
2022/10/14 02:54:46;;;;;;;;;;;;;;;11.51;73.45;101914.83;1712735;82;25781;-61
2022/10/14 02:57:13;;;;;;;;;;;;;;;11.50;73.15;101909.06;1713119;83;25435;-61
2022/10/14 02:59:39;;;;;;;;;;;;;;;11.49;73.45;101914.54;1689259;82;25884;-61
2022/10/14 03:02:07;;;;;;;;;;;;;;;11.41;73.56;101910.59;1729671;82;25539;-60
2022/10/14 03:04:36;;;;;;;;;;;;;;;11.36;73.42;101910.55;1738966;81;27515;-60
2022/10/14 03:07:04;;;;;;;;;;;;;;;11.33;73.67;101908.95;1738704;82;25744;-60
2022/10/14 03:09:31;;;;;;;;;;;;;;;11.31;73.62;101906.84;1697534;81;25806;-60
2022/10/14 03:11:58;;;;;;;;;;;;;;;11.26;74.22;101903.65;1684338;85;26860;-61
2022/10/14 03:14:25;;;;;;;;;;;;;;;11.24;73.78;101908.28;1715751;82;25891;-60
2022/10/14 03:16:53;;;;;;;;;;;;;;;11.18;73.75;101906.05;1737014;82;28171;-61
2022/10/14 03:19:21;;;;;;;;;;;;;;;11.19;74.08;101910.47;1710614;82;25814;-60
2022/10/14 03:21:49;;;;;;;;;;;;;;;11.19;74.30;101913.16;1732015;81;25756;-60
2022/10/14 03:24:18;;;;;;;;;;;;;;;11.17;74.30;101911.90;1714132;82;25865;-61
2022/10/14 03:26:45;;;;;;;;;;;;;;;11.19;74.19;101909.96;1732152;82;25790;-61
2022/10/14 03:29:12;;;;;;;;;;;;;;;11.22;74.17;101913.79;1695941;82;27494;-61
2022/10/14 03:31:40;;;;;;;;;;;;;;;11.25;74.29;101909.50;1705373;84;25496;-61
2022/10/14 03:34:23;;;;;;;;;;;;;;;11.23;74.15;101907.44;1730310;82;25824;-61
2022/10/14 03:36:51;;;;;;;;;;;;;;;11.26;74.37;101910.38;1735727;82;26625;-59
2022/10/14 03:39:19;;;;;;;;;;;;;;;11.23;74.50;101902.05;1722856;82;25437;-62
2022/10/14 03:41:48;;;;;;;;;;;;;;;11.23;74.40;101904.74;1705351;82;27371;-60
2022/10/14 03:44:16;;;;;;;;;;;;;;;11.27;74.56;101902.67;1704323;82;25762;-61
2022/10/14 03:46:45;;;;;;;;;;;;;;;11.28;74.41;101901.70;1709404;82;25707;-60
2022/10/14 03:49:11;;;;;;;;;;;;;;;11.26;74.55;101897.76;1722849;82;26412;-60
2022/10/14 03:51:38;;;;;;;;;;;;;;;11.22;74.58;101897.63;1713897;82;25730;-61
2022/10/14 03:54:07;;;;;;;;;;;;;;;11.20;74.64;101893.34;1735802;82;27544;-61
2022/10/14 03:56:34;;;;;;;;;;;;;;;11.21;74.56;101899.06;1692562;82;25819;-61
2022/10/14 03:59:04;;;;;;;;;;;;;;;11.22;74.54;101900.32;1691963;82;25739;-60
2022/10/14 04:01:32;;;;;;;;;;;;;;;11.25;74.71;101893.84;1735787;82;26164;-61
2022/10/14 04:04:03;;;;;;;;;;;;;;;11.23;74.50;101899.82;1735279;82;25744;-61
2022/10/14 04:06:30;;;;;;;;;;;;;;;11.25;74.66;101896.53;1729511;82;27481;-61
2022/10/14 04:08:57;;;;;;;;;;;;;;;11.27;74.56;101898.14;1710576;82;26004;-61
2022/10/14 04:11:26;;;;;;;;;;;;;;;11.26;74.48;101897.76;1678942;85;25936;-60
2022/10/14 04:13:57;;;;;;;;;;;;;;;11.24;74.33;101890.77;1693049;83;25961;-60
2022/10/14 04:16:24;;;;;;;;;;;;;;;11.23;74.53;101895.31;1717866;82;25751;-61
2022/10/14 04:19:04;;;;;;;;;;;;;;;11.18;74.29;101892.08;1734880;82;27552;-60
2022/10/14 04:21:31;;;;;;;;;;;;;;;11.15;74.60;101892.33;1723910;82;27234;-60
2022/10/14 04:23:58;;;;;;;;;;;;;;;11.13;74.68;101894.27;1718318;82;25456;-60
2022/10/14 04:26:35;;;;;;;;;;;;;;;11.12;74.76;101900.12;1737034;82;25803;-61
2022/10/14 04:29:03;;;;;;;;;;;;;;;11.11;74.41;101891.69;1732355;82;25752;-61
2022/10/14 04:31:32;;;;;;;;;;;;;;;11.12;74.55;101896.58;1702610;82;28239;-60
2022/10/14 04:34:00;;;;;;;;;;;;;;;11.15;74.74;101892.80;1695228;82;26261;-60
2022/10/14 04:36:29;;;;;;;;;;;;;;;11.17;74.51;101894.89;1729413;82;25522;-61
2022/10/14 04:38:56;;;;;;;;;;;;;;;11.19;74.76;101894.30;1705167;82;26539;-60
2022/10/14 04:41:23;;;;;;;;;;;;;;;11.21;74.48;101890.52;1710547;82;25750;-61
2022/10/14 04:43:52;;;;;;;;;;;;;;;11.25;74.54;101889.80;1733353;82;27661;-60
2022/10/14 04:46:20;;;;;;;;;;;;;;;11.30;74.60;101890.31;1736735;82;25716;-60
2022/10/14 04:48:48;;;;;;;;;;;;;;;11.36;74.42;101889.00;1723443;82;25704;-60
2022/10/14 04:51:15;;;;;;;;;;;;;;;11.40;74.24;101881.08;1698271;84;25771;-60
2022/10/14 04:53:43;;;;;;;;;;;;;;;11.46;74.07;101875.72;1696938;82;25840;-61
2022/10/14 04:56:11;;;;;;;;;;;;;;;11.49;74.05;101878.16;1696376;83;27481;-61
2022/10/14 04:58:40;;;;;;;;;;;;;;;11.53;73.86;101872.93;1709503;82;25754;-60
2022/10/14 05:01:07;;;;;;;;;;;;;;;11.56;73.58;101880.30;1735656;82;25705;-60
2022/10/14 05:03:36;;;;;;;;;;;;;;;11.59;73.43;101877.37;1716188;82;25874;-61
2022/10/14 05:06:04;;;;;;;;;;;;;;;11.62;73.44;101878.98;1732134;82;25669;-65
2022/10/14 05:08:31;;;;;;;;;;;;;;;11.67;73.36;101871.89;1731494;82;28231;-60
2022/10/14 05:10:59;;;;;;;;;;;;;;;11.70;73.04;101872.98;1735678;82;25867;-60
2022/10/14 05:13:29;;;;;;;;;;;;;;;11.72;73.02;101878.66;1734795;82;25860;-60
2022/10/14 05:15:57;;;;;;;;;;;;;;;11.77;72.82;101876.08;1705873;82;26408;-60
2022/10/14 05:18:24;;;;;;;;;;;;;;;11.81;72.75;101877.08;1741654;82;25878;-60
2022/10/14 05:20:58;;;;;;;;;;;;;;;11.87;72.64;101875.28;1741097;82;27462;-61
2022/10/14 05:23:27;;;;;;;;;;;;;;;11.90;72.55;101875.02;1726036;81;26115;-61
2022/10/14 05:25:54;;;;;;;;;;;;;;;11.96;72.38;101870.16;1690710;83;25752;-60
2022/10/14 05:28:21;;;;;;;;;;;;;;;11.97;71.84;101877.27;1740048;82;25885;-61
2022/10/14 05:30:49;;;;;;;;;;;;;;;11.95;71.40;101876.52;1701272;82;25764;-61
2022/10/14 05:33:15;;;;;;;;;;;;;;;11.88;71.43;101883.71;1707513;82;27471;-60
2022/10/14 05:35:43;;;;;;;;;;;;;;;11.88;71.53;101884.22;1735101;82;25664;-61
2022/10/14 05:38:12;;;;;;;;;;;;;;;11.89;71.55;101889.98;1672668;82;25787;-60
2022/10/14 05:40:40;;;;;;;;;;;;;;;11.90;71.59;101893.90;1721172;82;25849;-60
2022/10/14 05:43:08;;;;;;;;;;;;;;;11.90;71.46;101888.50;1714748;82;26469;-60
2022/10/14 05:45:36;;;;;;;;;;;;;;;11.93;71.38;101894.65;1684379;82;28368;-59
2022/10/14 05:48:04;;;;;;;;;;;;;;;11.95;71.50;101894.05;1692411;82;25735;-60
2022/10/14 05:50:30;;;;;;;;;;;;;;;11.97;71.37;101894.80;1692329;83;25780;-60
2022/10/14 05:53:00;;;;;;;;;;;;;;;11.97;71.26;101894.80;1693971;82;25866;-60
2022/10/14 05:55:30;;;;;;;;;;;;;;;11.96;71.18;101897.97;1708640;82;25809;-60
2022/10/14 05:57:58;;;;;;;;;;;;;;;12.00;71.34;101904.02;1727420;82;27469;-61
2022/10/14 06:00:26;;;;;;;;;;;;;;;12.04;71.29;101905.52;1731445;81;25787;-60
2022/10/14 06:02:56;;;;;;;;;;;;;;;12.11;71.49;101903.18;1711780;82;25796;-60
2022/10/14 06:05:23;;;;;;;;;;;;;;;12.19;71.49;101902.97;1718176;82;26006;-60
2022/10/14 06:07:50;;;;;;;;;;;;;;;12.25;71.21;101907.03;1711619;82;25770;-60
2022/10/14 06:10:17;;;;;;;;;;;;;;;12.32;71.11;101903.38;1716329;82;27513;-61
2022/10/14 06:12:43;;;;;;;;;;;;;;;12.36;71.12;101900.79;1720329;82;25710;-60
2022/10/14 06:15:11;;;;;;;;;;;;;;;12.41;70.95;101903.12;1721428;82;25808;-62
2022/10/14 06:17:37;;;;;;;;;;;;;;;12.46;70.98;101904.49;1692424;84;26556;-60
2022/10/14 06:20:05;;;;;;;;;;;;;;;12.48;70.75;101905.70;1732659;82;25468;-60
2022/10/14 06:22:31;;;;;;;;;;;;;;;12.51;70.87;101909.02;1734425;82;28199;-60
2022/10/14 06:24:58;;;;;;;;;;;;;;;12.60;70.94;101906.09;1707973;82;25790;-61
2022/10/14 06:27:25;;;;;;;;;;;;;;;12.61;70.81;101905.59;1695832;82;25799;-60
2022/10/14 06:29:51;;;;;;;;;;;;;;;12.62;70.59;101910.02;1732778;82;26040;-60
2022/10/14 06:32:18;;;;;;;;;;;;;;;12.61;70.65;101909.17;1734172;82;25810;-60
2022/10/14 06:34:44;;;;;;;;;;;;;;;12.56;70.31;101908.66;1728696;82;27553;-62
2022/10/14 06:37:10;;;;;;;;;;;;;;;12.57;70.69;101914.94;1721661;82;25926;-60
2022/10/14 06:39:37;;;;;;;;;;;;;;;12.55;70.52;101910.98;1731163;82;25700;-60
2022/10/14 06:42:04;;;;;;;;;;;;;;;12.53;70.40;101910.27;1705193;82;25799;-61
2022/10/14 06:44:31;;;;;;;;;;;;;;;12.51;70.29;101909.02;1701473;82;25731;-61
2022/10/14 06:46:58;;;;;;;;;;;;;;;12.50;70.39;101907.80;1714146;82;27481;-60
2022/10/14 06:49:25;;;;;;;;;;;;;;;12.49;70.19;101911.48;1729895;82;25941;-61
2022/10/14 06:51:51;;;;;;;;;;;;;;;12.50;70.29;101910.50;1719727;82;25708;-61
2022/10/14 06:54:18;;;;;;;;;;;;;;;12.52;70.16;101909.39;1734192;82;26190;-60
2022/10/14 06:56:45;;;;;;;;;;;;;;;12.53;70.27;101910.27;1736624;82;25536;-61
2022/10/14 06:59:12;;;;;;;;;;;;;;;12.50;70.22;101912.73;1709281;82;27613;-61
2022/10/14 07:01:39;;;;;;;;;;;;;;;12.51;70.30;101911.72;1710977;82;25744;-62
2022/10/14 07:04:05;;;;;;;;;;;;;;;12.54;70.41;101909.30;1705339;82;25801;-61
2022/10/14 07:06:32;;;;;;;;;;;;;;;12.55;70.38;101913.69;1689775;83;25813;-60
2022/10/14 07:08:58;;;;;;;;;;;;;;;12.56;70.41;101910.52;1695314;84;25513;-59
2022/10/14 07:11:25;;;;;;;;;;;;;;;12.57;70.51;101915.78;1706146;83;27446;-61
2022/10/14 07:13:51;;;;;;;;;;;;;;;12.59;70.44;101912.98;1690869;83;25757;-60
2022/10/14 07:16:18;;;;;;;;;;;;;;;12.60;70.44;101916.90;1704732;83;25696;-60
2022/10/14 07:18:44;;;;;;;;;;;;;;;12.62;70.45;101909.55;1708309;82;26640;-60
2022/10/14 07:21:11;;;;;;;;;;;;;;;12.65;70.49;101915.19;1711253;83;26018;-60
2022/10/14 07:23:37;;;;;;;;;;;;;;;12.65;70.35;101912.48;1709191;82;27484;-60
2022/10/14 07:26:05;;;;;;;;;;;;;;;12.66;70.46;101911.50;1713244;83;25750;-60
2022/10/14 07:28:32;;;;;;;;;;;;;;;12.72;70.66;101910.16;1712655;83;25679;-60
2022/10/14 07:31:02;;;;;;;;;;;;;;;12.75;70.27;101906.72;1712207;83;25833;-61
2022/10/14 07:33:29;;;;;;;;;;;;;;;12.78;70.46;101911.02;1710009;82;25705;-61
2022/10/14 07:35:57;;;;;;;;;;;;;;;12.79;70.36;101908.18;1711489;83;28141;-60
2022/10/14 07:38:24;;;;;;;;;;;;;;;12.80;70.25;101906.36;1711341;83;25887;-60
2022/10/14 07:40:59;;;;;;;;;;;;;;;12.84;70.38;101910.52;1704954;83;25823;-60
2022/10/14 07:43:26;;;;;;;;;;;;;;;12.79;69.88;101910.88;1699966;84;25949;-61
2022/10/14 07:45:59;;;;;;;;;;;;;;;12.77;70.17;101914.22;1700453;84;25697;-60
2022/10/14 07:48:21;;;;;;;;;;;;;;;12.78;70.04;101927.22;1703229;83;27667;-60
2022/10/14 07:50:50;;;;;;;;;;;;;;;12.80;70.27;101916.66;1708939;83;26427;-60
2022/10/14 07:53:18;;;;;;;;;;;;;;;12.83;70.22;101917.77;1701298;82;25623;-61
2022/10/14 07:55:51;;;;;;;;;;;;;;;12.84;70.07;101919.97;1720730;82;26113;-61
2022/10/14 07:58:16;;;;;;;;;;;;;;;12.82;70.09;101916.05;1715710;82;25511;-61
2022/10/14 08:00:44;;;;;;;;;;;;;;;12.79;69.87;101916.28;1707942;82;27563;-60
2022/10/14 08:03:11;;;;;;;;;;;;;;;12.80;69.82;101919.86;1684177;85;25831;-61
2022/10/14 08:05:37;;;;;;;;;;;;;;;12.83;69.97;101919.12;1684155;84;25799;-61
2022/10/14 08:08:04;;;;;;;;;;;;;;;12.86;69.75;101916.66;1684335;84;25768;-60
2022/10/14 08:10:31;;;;;;;;;;;;;;;12.88;69.66;101923.27;1684610;82;25736;-60
2022/10/14 08:12:58;;;;;;;;;;;;;;;12.88;69.50;101917.87;1710769;82;27485;-61
2022/10/14 08:15:30;;;;;;;;;;;;;;;12.93;69.43;101917.03;1709240;83;25726;-60
2022/10/14 08:17:54;;;;;;;;;;;;;;;12.95;69.12;101913.22;1718475;82;25875;-61
2022/10/14 08:20:20;;;;;;;;;;;;;;;12.99;69.25;101915.17;1733655;82;25808;-61
2022/10/14 08:22:47;;;;;;;;;;;;;;;13.06;69.02;101919.59;1732407;82;25734;-59
2022/10/14 08:25:14;;;;;;;;;;;;;;;13.08;68.84;101914.94;1706074;82;27445;-61
2022/10/14 08:27:41;;;;;;;;;;;;;;;13.08;68.70;101915.78;1695798;84;25839;-61
2022/10/14 08:30:09;;;;;;;;;;;;;;;13.10;68.48;101919.22;1707383;84;25485;-61
2022/10/14 08:32:36;;;;;;;;;;;;;;;13.14;68.20;101919.83;1729960;82;25954;-61
2022/10/14 08:35:03;;;;;;;;;;;;;;;13.18;68.32;101914.52;1733536;82;26467;-59
2022/10/14 08:37:29;;;;;;;;;;;;;;;13.22;68.10;101917.36;1735886;82;27726;-60
2022/10/14 08:39:56;;;;;;;;;;;;;;;13.23;68.00;101919.55;1727329;82;25625;-60
2022/10/14 08:42:52;;;;;;;;;;;;;;;13.25;67.96;101923.00;1706560;83;26373;-60
2022/10/14 08:45:40;;;;;;;;;;;;;;;13.27;67.96;101923.73;1736206;82;25783;-60
2022/10/14 08:48:12;;;;;;;;;;;;;;;13.27;67.75;101923.73;1704429;82;26568;-61
2022/10/14 08:50:57;;;;;;;;;;;;;;;13.28;67.80;101922.25;1688960;84;28407;-61
2022/10/14 08:53:31;;;;;;;;;;;;;;;13.28;67.66;101923.60;1703437;82;25885;-61
2022/10/14 08:55:59;;;;;;;;;;;;;;;13.27;67.51;101921.03;1732916;82;25724;-58
2022/10/14 08:58:32;;;;;;;;;;;;;;;13.28;67.31;101917.35;1737024;82;25800;-61
2022/10/14 09:01:03;;;;;;;;;;;;;;;13.25;67.40;101921.64;1714166;82;25628;-61
2022/10/14 09:03:35;;;;;;;;;;;;;;;13.24;67.47;101921.27;1707450;82;27495;-61
2022/10/14 09:06:05;;;;;;;;;;;;;;;13.24;67.52;101918.10;1661072;84;25818;-61
2022/10/14 09:08:38;;;;;;;;;;;;;;;13.29;67.60;101923.12;1707046;82;25681;-61
2022/10/14 09:11:08;;;;;;;;;;;;;;;13.34;67.63;101926.30;1703439;82;25857;-61
2022/10/14 09:13:38;;;;;;;;;;;;;;;13.40;67.61;101928.52;1711373;82;26289;-62
2022/10/14 09:16:14;;;;;;;;;;;;;;;13.49;67.56;101932.83;1711710;83;28185;-61
2022/10/14 09:18:44;;;;;;;;;;;;;;;13.54;67.45;101927.89;1706768;82;25806;-61
2022/10/14 09:21:31;;;;;;;;;;;;;;;13.60;67.30;101926.89;1713848;81;25746;-62
2022/10/14 09:24:07;;;;;;;;;;;;;;;13.63;66.77;101925.77;1697390;83;25897;-61
2022/10/14 09:26:39;;;;;;;;;;;;;;;13.61;66.23;101927.73;1703373;82;25888;-61
2022/10/14 09:29:09;;;;;;;;;;;;;;;13.66;66.55;101926.88;1684690;83;27598;-60
2022/10/14 09:31:36;;;;;;;;;;;;;;;13.75;66.19;101920.70;1684166;84;25929;-59
2022/10/14 09:34:02;;;;;;;;;;;;;;;13.77;66.13;101922.75;1694412;82;25731;-59
2022/10/14 09:36:28;;;;;;;;;;;;;;;13.79;66.14;101930.76;1718311;82;26608;-61
2022/10/14 09:38:55;;;;;;;;;;;;;;;13.86;66.29;101928.37;1742427;82;25759;-60
2022/10/14 09:41:27;;;;;;;;;;;;;;;13.84;65.93;101924.45;1690789;83;29673;-60
2022/10/14 09:44:20;;;;;;;;;;;;;;;13.87;65.98;101930.97;1724271;82;25756;-60
2022/10/14 09:46:50;;;;;;;;;;;;;;;13.86;65.84;101932.43;1707329;82;25743;-63
2022/10/14 09:49:22;;;;;;;;;;;;;;;13.85;65.70;101937.50;1686685;83;27728;-61
2022/10/14 09:51:50;;;;;;;;;;;;;;;13.84;65.68;101943.90;1694015;83;25737;-61
2022/10/14 09:54:23;;;;;;;;;;;;;;;13.84;65.61;101933.92;1671256;86;28303;-59
2022/10/14 09:56:59;;;;;;;;;;;;;;;13.87;65.65;101944.97;1702353;83;25988;-61
2022/10/14 09:59:26;;;;;;;;;;;;;;;13.92;65.65;101938.70;1671412;85;25658;-59
2022/10/14 10:01:56;;;;;;;;;;;;;;;13.91;65.28;101939.68;1671475;85;25852;-61
2022/10/14 10:04:32;;;;;;;;;;;;;;;13.89;65.13;101941.65;1699327;83;25867;-61
2022/10/14 10:07:02;;;;;;;;;;;;;;;13.88;65.31;101935.39;1689918;83;28329;-60
2022/10/14 10:09:29;;;;;;;;;;;;;;;13.86;65.22;101935.13;1683907;85;25761;-61
2022/10/14 10:11:55;;;;;;;;;;;;;;;13.86;65.35;101945.95;1683743;85;25756;-60
2022/10/14 10:14:31;;;;;;;;;;;;;;;13.85;65.31;101937.50;1683635;84;25834;-61
2022/10/14 10:17:11;;;;;;;;;;;;;;;13.82;65.29;101935.89;1676730;85;25963;-61
2022/10/14 10:19:44;;;;;;;;;;;;;;;13.77;65.35;101940.33;1696781;84;28150;-61
2022/10/14 10:22:32;;;;;;;;;;;;;;;13.78;65.45;101939.34;1653580;84;25890;-62
2022/10/14 10:25:05;;;;;;;;;;;;;;;13.78;65.52;101942.56;1691155;83;25849;-59
2022/10/14 10:27:35;;;;;;;;;;;;;;;13.76;65.53;101938.61;1696888;83;26091;-60
2022/10/14 10:30:24;;;;;;;;;;;;;;;13.78;65.72;101936.64;1697589;84;25683;-61
2022/10/14 10:33:13;;;;;;;;;;;;;;;13.83;65.64;101932.71;1669731;86;27479;-60
2022/10/14 10:36:07;;;;;;;;;;;;;;;13.84;65.47;101932.57;1675022;83;25766;-60
2022/10/14 10:38:44;;;;;;;;;;;;;;;13.84;64.95;101935.78;1719913;83;25799;-63
2022/10/14 10:41:17;;;;;;;;;;;;;;;13.83;65.10;101930.84;1688107;83;26035;-60
2022/10/14 10:43:50;;;;;;;;;;;;;;;13.89;64.94;101926.77;1697598;84;25723;-61
2022/10/14 10:46:23;;;;;;;;;;;;;;;13.96;64.84;101927.96;1682873;83;27595;-60
2022/10/14 10:49:02;;;;;;;;;;;;;;;13.97;64.72;101928.33;1654898;83;25820;-61
2022/10/14 10:51:52;;;;;;;;;;;;;;;14.01;64.76;101923.04;1724506;83;25805;-61
2022/10/14 10:54:47;;;;;;;;;;;;;;;14.16;64.97;101919.52;1726594;83;26360;-59
2022/10/14 10:57:37;;;;;;;;;;;;;;;14.25;64.48;101917.86;1697785;83;25825;-60
2022/10/14 11:00:07;;;;;;;;;;;;;;;14.34;64.08;101914.86;1696329;83;27593;-59
2022/10/14 11:02:47;;;;;;;;;;;;;;;14.38;63.92;101917.17;1696318;84;25869;-60
2022/10/14 11:05:22;;;;;;;;;;;;;;;14.41;64.07;101906.56;1697582;84;25795;-60
2022/10/14 11:13:55;;;;;;;;;;;;;;;14.79;63.58;101901.50;1685582;83;27495;-61
2022/10/14 11:16:41;;;;;;;;;;;;;;;14.94;63.64;101901.98;1693933;83;25810;-61
2022/10/14 11:19:12;;;;;;;;;;;;;;;15.00;63.19;101890.11;1688064;84;26246;-60
2022/10/14 11:22:03;;;;;;;;;;;;;;;15.13;63.18;101882.20;1703434;83;25806;-61
2022/10/14 11:24:57;;;;;;;;;;;;;;;15.22;63.05;101883.24;1709685;83;25508;-61
2022/10/14 11:27:35;;;;;;;;;;;;;;;15.39;62.99;101884.39;1688454;83;27591;-61
2022/10/14 11:30:25;;;;;;;;;;;;;;;15.51;62.45;101880.56;1694639;82;25729;-60
2022/10/14 11:33:13;;;;;;;;;;;;;;;15.62;61.94;101872.78;1739036;82;26590;-61
2022/10/14 11:35:51;;;;;;;;;;;;;;;15.78;61.16;101873.58;1714160;82;25857;-60
2022/10/14 11:38:33;;;;;;;;;;;;;;;15.98;60.81;101866.30;1709651;82;26207;-62
2022/10/14 11:41:04;;;;;;;;;;;;;;;16.09;59.90;101867.50;1712585;82;27536;-60
2022/10/14 11:43:47;;;;;;;;;;;;;;;16.14;60.03;101862.98;1712903;82;26471;-60
2022/10/14 11:46:20;;;;;;;;;;;;;;;16.16;59.98;101854.69;1712889;83;25811;-60
2022/10/14 11:48:58;;;;;;;;;;;;;;;16.11;59.54;101859.20;1709139;82;25838;-61
2022/10/14 11:51:43;;;;;;;;;;;;;;;16.03;59.21;101861.78;1706651;82;25884;-60
2022/10/14 11:54:19;;;;;;;;;;;;;;;16.02;59.46;101865.02;1718517;82;28256;-60
2022/10/14 11:56:58;;;;;;;;;;;;;;;16.00;59.55;101860.23;1714721;82;25903;-61
2022/10/14 12:02:47;;;;;;;;;;;;;;;16.06;59.28;101864.22;1711497;82;26866;-60
2022/10/14 12:05:21;;;;;;;;;;;;;;;15.96;59.02;101855.59;1684523;85;25734;-60
2022/10/14 12:08:00;;;;;;;;;;;;;;;15.96;59.43;101855.59;1685542;82;27769;-60
2022/10/14 12:10:30;;;;;;;;;;;;;;;15.91;59.00;101857.87;1684228;85;27181;-60
2022/10/14 12:12:58;;;;;;;;;;;;;;;15.81;59.42;101857.02;1703128;82;25750;-61
2022/10/14 12:15:26;;;;;;;;;;;;;;;15.80;59.64;101855.30;1688665;82;25821;-60
2022/10/14 12:18:01;;;;;;;;;;;;;;;15.73;59.54;101848.23;1684163;85;25774;-60
2022/10/14 12:20:37;;;;;;;;;;;;;;;15.68;59.52;101851.02;1685854;83;27682;-60
2022/10/14 12:23:06;;;;;;;;;;;;;;;15.67;59.77;101852.01;1725432;82;25934;-61
2022/10/14 12:25:40;;;;;;;;;;;;;;;15.68;59.95;101850.53;1732410;82;25736;-61
2022/10/14 12:28:09;;;;;;;;;;;;;;;15.71;60.06;101845.31;1729813;82;25884;-61
2022/10/14 12:30:40;;;;;;;;;;;;;;;15.75;59.98;101845.36;1734895;82;25784;-61
2022/10/14 12:33:10;;;;;;;;;;;;;;;15.83;60.00;101841.94;1742470;82;27476;-61
2022/10/14 12:35:59;;;;;;;;;;;;;;;15.94;59.91;101841.30;1712799;81;25805;-60
2022/10/14 12:38:28;;;;;;;;;;;;;;;16.03;59.23;101833.29;1684488;82;25787;-61
2022/10/14 12:41:17;;;;;;;;;;;;;;;16.07;58.84;101830.66;1700131;82;25781;-61
2022/10/14 12:43:49;;;;;;;;;;;;;;;16.07;58.82;101839.64;1682249;85;25708;-60
2022/10/14 12:46:15;;;;;;;;;;;;;;;16.04;58.89;101830.94;1710675;82;27525;-60
2022/10/14 12:48:49;;;;;;;;;;;;;;;16.07;58.82;101832.01;1716109;82;25711;-60
2022/10/14 12:51:19;;;;;;;;;;;;;;;16.03;58.63;101830.09;1734200;80;26366;-60
2022/10/14 12:53:49;;;;;;;;;;;;;;;16.05;58.36;101827.22;1721539;83;25835;-60
2022/10/14 12:56:34;;;;;;;;;;;;;;;16.07;58.11;101826.06;1697442;83;25731;-61
2022/10/14 12:59:04;;;;;;;;;;;;;;;16.14;58.13;101830.41;1671230;85;27561;-60
2022/10/14 13:01:33;;;;;;;;;;;;;;;16.12;57.47;101825.63;1670986;85;25789;-61
2022/10/14 13:04:06;;;;;;;;;;;;;;;16.08;57.61;101826.42;1671143;86;25546;-61
2022/10/14 13:06:41;;;;;;;;;;;;;;;16.07;57.48;101821.99;1676772;83;27061;-61